Etusivu
METAR-TAF:

METAR-TAF

Lentoasemat :

Malmön lentoasema

Malmö, Ruotsi

Leveyspiiri: 55-33N, Pituuspiiri: 013-22E, korkeus merenpinnasta: 106 m

Tämänhetkinen sää

Tämä raportti tehtiin 40 minuuttia sitten, kello 10.20 UTC
Tuuli 11 kn lännestä/lounaasta
Lämpötila 19°C
Kosteus 56%
Ilmanpaine 1015 hPa
Näkyvyys 10 km tai enemmän
Muutamia pilviä 3100 ft:n korkeudessa

METAR: ESMS 181020Z 24011KT 9999 FEW031 19/10 Q1015

Aika: 13:00 (11:00 UTC)

Sääennuste

Tämä raportti tehtiin 2 tuntia ja 55 minuuttia sitten, kello 08.05 UTC
Ennuste voimassa 18. päivästä klo 09 UTC - 19. päivään klo 09 UTC
Tuuli 7 kn lännestä
Näkyvyys 10 km tai enemmän
Muutamia pilviä 3000 ft:n korkeudessa

TAF: ESMS 180805Z 1809/1909 27007KT 9999 FEW030

Säähavainnot ja -ennusteet yli 4000 lentoasemalta (METAR- ja TAF-raportit).

Käytössä olevat sääasemat on merkitty karttaan keltaisilla ja punaisilla pisteillä.

Aseta hiiri pisteen päälle nähdäksesi sääaseman nimen.

Klikkaa sitten nähdäksesi säähavainnot ja -ennusteet.

Kartan vaihtaminen: klikkaa mustalla rastilla varustettuja vihreitä pisteitä, niin voit zoomata sisään; viivalla varustettua vihreää pistettä, niin voit zoomata ulos tai vihreitä nuolia, niin pääset viereisille kartoille.


METAR-TAF: